Weather History for Carson City, NV

Change the Weather History Date:

Sunday, January 27, 2013

  Actual Average Record
Temperature  
Mean Temperature 32 °F -  
Max Temperature 39 °F 46 °F 57 °F (2014)
Min Temperature 24 °F 21 °F 17 °F (2014)
Degree Days  
Heating Degree Days 34    
Moisture  
Dew Point 17 °F    
Average Humidity 56    
Maximum Humidity 80    
Minimum Humidity 35    
Precipitation  
Precipitation 0.00 in - - ()
Sea Level Pressure  
Sea Level Pressure 29.98 in    
Wind  
Wind Speed 9 mph (NW)    
Max Wind Speed 20 mph    
Max Gust Speed 28 mph    
Visibility 10 miles    
Events Rain    
Averages and records for this station are not official NWS values.
T = Trace of Precipitation, MM = Missing Value Source: NWS Daily Summary

Daily Weather History Graph

Daily Weather History Graph

Search for Another Location

Airport:

Trip Planner

Search our weather history database for the weather conditions in past years. The results will help you decide how hot, cold, wet, or windy it might be!

Date:

Astronomy

Jan. 27, 2013 Rise Set
Actual Time 7:09 AM PST 5:14 PM PST
Civil Twilight 6:41 AM PST 5:42 PM PST
Nautical Twilight 6:08 AM PST 6:15 PM PST
Astronomical Twilight 5:37 AM PST 6:46 PM PST
Moon 6:12 PM PST (1/27) 7:06 AM PST (1/27)
Length of Visible Light 11h 01m
Length of Day
10h 04m
Full, 100% of the Moon is Illuminated
Jan 27
Full
Feb 3
Last Quarter
Feb 9
New
Feb 17
First Quarter
Feb 25
Full

Hourly Weather History & Observations

Time (PST) Temp. Windchill Dew Point Humidity Pressure Visibility Wind Dir Wind Speed Gust Speed Precip Events Conditions
12:15 AM 39.2 °F 30.8 °F 19.4 °F 45% 29.86 in 10.0 mi WSW 15.0 mph 19.6 mph N/A   Mostly Cloudy
12:35 AM 39.2 °F 32.5 °F 19.4 °F 45% 29.85 in 10.0 mi WSW 10.4 mph 18.4 mph N/A   Overcast
12:55 AM 39.2 °F 31.6 °F 19.4 °F 45% 29.85 in 10.0 mi WSW 12.7 mph 23.0 mph N/A   Mostly Cloudy
1:15 AM 39.2 °F 31.6 °F 19.4 °F 45% 29.85 in 10.0 mi WSW 12.7 mph 25.3 mph N/A   Partly Cloudy
1:35 AM 37.4 °F 28.5 °F 19.4 °F 48% 29.85 in 10.0 mi WSW 15.0 mph 25.3 mph N/A   Partly Cloudy
1:55 AM 37.4 °F 29.3 °F 19.4 °F 48% 29.85 in 10.0 mi WSW 12.7 mph 23.0 mph N/A   Scattered Clouds
2:15 AM 37.4 °F 27.2 °F 15.8 °F 41% 29.86 in 10.0 mi WSW 19.6 mph 27.6 mph N/A   Clear
2:35 AM 37.4 °F 31.4 °F 15.8 °F 41% 29.87 in 10.0 mi WSW 8.1 mph 23.0 mph N/A   Clear
2:55 AM 35.6 °F 29.2 °F 17.6 °F 48% 29.87 in 10.0 mi WSW 8.1 mph - N/A   Clear
3:15 AM 35.6 °F 29.2 °F 14.0 °F 41% 29.87 in 10.0 mi West 8.1 mph - N/A   Clear
3:35 AM 35.6 °F 31.7 °F 14.0 °F 41% 29.87 in 10.0 mi ESE 4.6 mph - N/A   Clear
3:55 AM 35.6 °F 29.2 °F 10.4 °F 35% 29.87 in 10.0 mi SW 8.1 mph - N/A   Clear
4:15 AM 32.0 °F 26.4 °F 15.8 °F 51% 29.88 in 10.0 mi North 5.8 mph - N/A   Partly Cloudy
4:35 AM 32.0 °F - 14.0 °F 48% 29.88 in 10.0 mi Calm Calm - N/A   Scattered Clouds
4:55 AM 33.8 °F 30.8 °F 14.0 °F 44% 29.89 in 10.0 mi NW 3.5 mph - N/A   Mostly Cloudy
5:15 AM 32.0 °F - 15.8 °F 51% 29.89 in 10.0 mi Calm Calm - N/A   Overcast
5:35 AM 32.0 °F 24.2 °F 17.6 °F 55% 29.90 in 10.0 mi NW 9.2 mph 17.3 mph N/A   Overcast
5:55 AM 32.0 °F 24.8 °F 19.4 °F 60% 29.90 in 10.0 mi NW 8.1 mph - N/A   Overcast
6:15 AM 32.0 °F 24.2 °F 23.0 °F 69% 29.91 in 10.0 mi NNW 9.2 mph - N/A   Overcast
6:35 AM 32.0 °F 22.1 °F 23.0 °F 69% 29.92 in 10.0 mi North 13.8 mph 19.6 mph N/A   Overcast
6:55 AM 30.2 °F 21.3 °F 24.8 °F 80% 29.93 in 5.0 mi NNW 10.4 mph - N/A Rain Light Freezing Rain
7:15 AM 30.2 °F 20.2 °F 23.0 °F 75% 29.93 in 10.0 mi NNW 12.7 mph - N/A   Overcast
7:35 AM 32.0 °F 24.2 °F 23.0 °F 69% 29.93 in 10.0 mi NNW 9.2 mph 18.4 mph N/A   Overcast
7:55 AM 32.0 °F 25.6 °F 23.0 °F 69% 29.94 in 10.0 mi North 6.9 mph - N/A   Mostly Cloudy
8:15 AM 32.0 °F 26.4 °F 23.0 °F 69% 29.95 in 10.0 mi WNW 5.8 mph - N/A   Mostly Cloudy
8:35 AM 32.0 °F - 23.0 °F 69% 29.96 in 10.0 mi Calm Calm - N/A   Scattered Clouds
8:55 AM 32.0 °F 23.6 °F 21.2 °F 64% 29.97 in 10.0 mi NNW 10.4 mph - N/A   Scattered Clouds
9:15 AM 32.0 °F 24.8 °F 21.2 °F 64% 29.98 in 10.0 mi North 8.1 mph - N/A   Mostly Cloudy
9:35 AM 32.0 °F 22.1 °F 19.4 °F 60% 29.99 in 10.0 mi NNW 13.8 mph 20.7 mph N/A   Overcast
9:55 AM 32.0 °F 23.6 °F 19.4 °F 60% 29.99 in 10.0 mi WNW 10.4 mph - N/A   Overcast
10:15 AM 32.0 °F 21.6 °F 19.4 °F 60% 30.00 in 10.0 mi NNW 15.0 mph - N/A   Overcast
10:35 AM 32.0 °F 25.6 °F 19.4 °F 60% 30.01 in 10.0 mi NW 6.9 mph 17.3 mph N/A   Overcast
10:55 AM 32.0 °F 21.2 °F 19.4 °F 60% 30.01 in 10.0 mi NNW 16.1 mph 19.6 mph N/A   Overcast
11:15 AM 32.0 °F 25.6 °F 19.4 °F 60% 30.02 in 10.0 mi North 6.9 mph 17.3 mph N/A   Overcast
11:35 AM 32.0 °F 28.7 °F 17.6 °F 55% 30.01 in 10.0 mi NNE 3.5 mph 16.1 mph N/A   Overcast
11:55 AM 32.0 °F 24.2 °F 17.6 °F 55% 30.01 in 10.0 mi NW 9.2 mph - N/A   Overcast
12:15 PM 35.6 °F 30.7 °F 17.6 °F 48% 30.01 in 10.0 mi NE 5.8 mph - N/A   Overcast
12:35 PM 33.8 °F 23.9 °F 15.8 °F 48% 30.00 in 10.0 mi NW 15.0 mph 18.4 mph N/A   Mostly Cloudy
12:55 PM 33.8 °F 23.9 °F 15.8 °F 48% 30.00 in 10.0 mi NNW 15.0 mph - N/A   Clear
1:15 PM 33.8 °F 24.8 °F 17.6 °F 52% 30.00 in 10.0 mi NNW 12.7 mph - N/A   Clear
1:35 PM 33.8 °F 25.8 °F 17.6 °F 52% 30.00 in 10.0 mi NNW 10.4 mph - N/A   Clear
1:55 PM 35.6 °F 26.2 °F 17.6 °F 48% 30.00 in 10.0 mi North 15.0 mph - N/A   Clear
2:15 PM 35.6 °F 29.2 °F 15.8 °F 44% 30.00 in 10.0 mi NNW 8.1 mph - N/A   Clear
2:35 PM 35.6 °F 28.6 °F 15.8 °F 44% 30.01 in 10.0 mi NNW 9.2 mph - N/A   Clear
2:55 PM 35.6 °F 28.0 °F 15.8 °F 44% 30.01 in 10.0 mi North 10.4 mph 17.3 mph N/A   Partly Cloudy
3:15 PM 35.6 °F 28.6 °F 14.0 °F 41% 30.01 in 10.0 mi North 9.2 mph - N/A   Partly Cloudy
3:35 PM 33.8 °F 27.0 °F 14.0 °F 44% 30.01 in 10.0 mi NNW 8.1 mph - N/A   Clear
3:55 PM 32.0 °F 22.1 °F 15.8 °F 51% 30.01 in 10.0 mi NNW 13.8 mph - N/A   Clear
4:15 PM 33.8 °F 24.8 °F 15.8 °F 48% 30.01 in 10.0 mi NW 12.7 mph 16.1 mph N/A   Clear
4:35 PM 32.0 °F 25.6 °F 15.8 °F 51% 30.01 in 10.0 mi North 6.9 mph - N/A   Clear
4:55 PM 32.0 °F 24.8 °F 15.8 °F 51% 30.01 in 10.0 mi NNW 8.1 mph - N/A   Clear
5:15 PM 32.0 °F 24.8 °F 15.8 °F 51% 30.02 in 10.0 mi NNW 8.1 mph - N/A   Clear
5:35 PM 32.0 °F 24.2 °F 15.8 °F 51% 30.03 in 10.0 mi North 9.2 mph - N/A   Clear
5:55 PM 30.2 °F 24.3 °F 15.8 °F 55% 30.03 in 10.0 mi NNE 5.8 mph - N/A   Clear
6:15 PM 30.2 °F 25.4 °F 14.0 °F 51% 30.04 in 10.0 mi ESE 4.6 mph - N/A   Clear
6:35 PM 30.2 °F 24.3 °F 15.8 °F 55% 30.04 in 10.0 mi NNW 5.8 mph - N/A   Clear
6:55 PM 28.4 °F - 14.0 °F 55% 30.04 in 10.0 mi Calm Calm - N/A   Partly Cloudy
7:15 PM 28.4 °F 24.6 °F 14.0 °F 55% 30.05 in 10.0 mi NE 3.5 mph - N/A   Scattered Clouds
7:35 PM 28.4 °F 24.6 °F 14.0 °F 55% 30.05 in 10.0 mi West 3.5 mph - N/A   Scattered Clouds
7:55 PM 28.4 °F - 14.0 °F 55% 30.05 in 10.0 mi Calm Calm - N/A   Partly Cloudy
8:15 PM 26.6 °F 20.0 °F 15.8 °F 64% 30.06 in 10.0 mi West 5.8 mph - N/A   Scattered Clouds
8:35 PM 26.6 °F 21.2 °F 15.8 °F 64% 30.06 in 10.0 mi WSW 4.6 mph - N/A   Partly Cloudy
8:55 PM 26.6 °F 22.6 °F 14.0 °F 59% 30.06 in 10.0 mi WSW 3.5 mph - N/A   Clear
9:15 PM 24.8 °F - 15.8 °F 69% 30.06 in 10.0 mi Calm Calm - N/A   Clear
9:35 PM 24.8 °F 19.1 °F 15.8 °F 69% 30.06 in 10.0 mi NW 4.6 mph - N/A   Clear
9:55 PM 24.8 °F 20.5 °F 15.8 °F 69% 30.06 in 10.0 mi WNW 3.5 mph - N/A   Scattered Clouds
10:15 PM 24.8 °F - 15.8 °F 69% 30.06 in 10.0 mi Calm Calm - N/A   Mostly Cloudy
10:35 PM 24.8 °F - 15.8 °F 69% 30.06 in 10.0 mi Calm Calm - N/A   Overcast
10:55 PM 24.8 °F - 15.8 °F 69% 30.06 in 10.0 mi Calm Calm - N/A   Overcast
11:15 PM 24.8 °F - 15.8 °F 69% 30.07 in 10.0 mi Calm Calm - N/A   Overcast
11:35 PM 24.8 °F - 17.6 °F 74% 30.07 in 10.0 mi Calm Calm - N/A   Overcast
11:55 PM 24.8 °F - 17.6 °F 74% 30.07 in 10.0 mi Calm Calm - N/A   Overcast